sensor_id;sensor_type;location;lat;lon;timestamp;temperature;humidity
19924;DHT22;10124;53.068;18.224;2022-10-22T00:03:37;8.40;1.00
19924;DHT22;10124;53.068;18.224;2022-10-22T00:08:33;8.30;1.00
19924;DHT22;10124;53.068;18.224;2022-10-22T00:11:08;8.60;1.00
19924;DHT22;10124;53.068;18.224;2022-10-22T00:16:03;8.40;1.00
19924;DHT22;10124;53.068;18.224;2022-10-22T00:20:59;8.40;1.00
19924;DHT22;10124;53.068;18.224;2022-10-22T00:30:57;8.50;1.00
19924;DHT22;10124;53.068;18.224;2022-10-22T00:33:27;8.50;1.00
19924;DHT22;10124;53.068;18.224;2022-10-22T00:38:22;8.50;1.00
19924;DHT22;10124;53.068;18.224;2022-10-22T00:40:50;8.60;1.00
19924;DHT22;10124;53.068;18.224;2022-10-22T00:43:18;8.80;1.00
19924;DHT22;10124;53.068;18.224;2022-10-22T00:45:46;8.60;1.00
19924;DHT22;10124;53.068;18.224;2022-10-22T00:48:14;8.60;1.00
19924;DHT22;10124;53.068;18.224;2022-10-22T00:51:13;8.60;1.00
19924;DHT22;10124;53.068;18.224;2022-10-22T00:53:49;8.80;1.00
19924;DHT22;10124;53.068;18.224;2022-10-22T00:56:17;8.60;1.00
19924;DHT22;10124;53.068;18.224;2022-10-22T00:58:47;8.70;1.00
19924;DHT22;10124;53.068;18.224;2022-10-22T01:01:18;8.70;1.00
19924;DHT22;10124;53.068;18.224;2022-10-22T01:03:48;8.70;1.00
19924;DHT22;10124;53.068;18.224;2022-10-22T01:06:25;8.70;1.00
19924;DHT22;10124;53.068;18.224;2022-10-22T01:12:17;8.70;1.00
19924;DHT22;10124;53.068;18.224;2022-10-22T01:17:47;8.70;1.00
19924;DHT22;10124;53.068;18.224;2022-10-22T01:20:54;8.70;1.00
19924;DHT22;10124;53.068;18.224;2022-10-22T01:29:18;8.80;1.00
19924;DHT22;10124;53.068;18.224;2022-10-22T01:32:10;8.80;1.00
19924;DHT22;10124;53.068;18.224;2022-10-22T01:34:41;8.90;1.00
19924;DHT22;10124;53.068;18.224;2022-10-22T01:37:11;8.80;1.00
19924;DHT22;10124;53.068;18.224;2022-10-22T01:39:41;8.80;1.00
19924;DHT22;10124;53.068;18.224;2022-10-22T01:42:12;8.90;1.00
19924;DHT22;10124;53.068;18.224;2022-10-22T01:44:40;8.80;1.00
19924;DHT22;10124;53.068;18.224;2022-10-22T01:50:21;8.90;1.00
19924;DHT22;10124;53.068;18.224;2022-10-22T01:53:11;8.90;1.00
19924;DHT22;10124;53.068;18.224;2022-10-22T02:01:34;8.90;1.00
19924;DHT22;10124;53.068;18.224;2022-10-22T02:04:14;8.90;1.00
19924;DHT22;10124;53.068;18.224;2022-10-22T02:06:45;8.90;1.00
19924;DHT22;10124;53.068;18.224;2022-10-22T02:09:14;8.90;1.00
19924;DHT22;10124;53.068;18.224;2022-10-22T02:11:44;8.90;1.00
19924;DHT22;10124;53.068;18.224;2022-10-22T02:14:12;8.90;1.00
19924;DHT22;10124;53.068;18.224;2022-10-22T02:16:44;8.90;1.00
19924;DHT22;10124;53.068;18.224;2022-10-22T02:19:35;8.90;1.00
19924;DHT22;10124;53.068;18.224;2022-10-22T02:22:04;8.90;1.00
19924;DHT22;10124;53.068;18.224;2022-10-22T02:24:32;8.90;1.00
19924;DHT22;10124;53.068;18.224;2022-10-22T02:27:19;9.00;1.00
19924;DHT22;10124;53.068;18.224;2022-10-22T02:30:09;8.90;1.00
19924;DHT22;10124;53.068;18.224;2022-10-22T02:32:55;8.90;1.00
19924;DHT22;10124;53.068;18.224;2022-10-22T02:35:26;9.00;1.00
19924;DHT22;10124;53.068;18.224;2022-10-22T02:37:56;8.90;1.00
19924;DHT22;10124;53.068;18.224;2022-10-22T02:40:25;9.00;1.00
19924;DHT22;10124;53.068;18.224;2022-10-22T02:45:21;9.00;1.00
19924;DHT22;10124;53.068;18.224;2022-10-22T02:47:50;9.00;1.00
19924;DHT22;10124;53.068;18.224;2022-10-22T02:50:17;9.00;1.00
19924;DHT22;10124;53.068;18.224;2022-10-22T02:55:13;9.00;1.00
19924;DHT22;10124;53.068;18.224;2022-10-22T02:57:40;9.00;1.00
19924;DHT22;10124;53.068;18.224;2022-10-22T03:00:09;9.00;1.00
19924;DHT22;10124;53.068;18.224;2022-10-22T03:02:37;9.00;1.00
19924;DHT22;10124;53.068;18.224;2022-10-22T03:05:05;9.10;1.00
19924;DHT22;10124;53.068;18.224;2022-10-22T03:10:00;9.00;1.00
19924;DHT22;10124;53.068;18.224;2022-10-22T03:14:55;9.10;1.00
19924;DHT22;10124;53.068;18.224;2022-10-22T03:17:23;9.60;1.00
19924;DHT22;10124;53.068;18.224;2022-10-22T03:19:50;10.80;1.00
19924;DHT22;10124;53.068;18.224;2022-10-22T03:22:24;9.10;1.00
19924;DHT22;10124;53.068;18.224;2022-10-22T03:24:56;9.20;1.00
19924;DHT22;10124;53.068;18.224;2022-10-22T03:27:25;9.10;1.00
19924;DHT22;10124;53.068;18.224;2022-10-22T03:29:55;9.10;1.00
19924;DHT22;10124;53.068;18.224;2022-10-22T03:32:23;9.20;1.00
19924;DHT22;10124;53.068;18.224;2022-10-22T03:34:51;9.20;1.00
19924;DHT22;10124;53.068;18.224;2022-10-22T03:37:19;9.20;1.00
19924;DHT22;10124;53.068;18.224;2022-10-22T03:39:46;9.20;1.00
19924;DHT22;10124;53.068;18.224;2022-10-22T03:42:14;9.20;1.00
19924;DHT22;10124;53.068;18.224;2022-10-22T03:44:42;9.10;1.00
19924;DHT22;10124;53.068;18.224;2022-10-22T03:47:10;9.20;1.00
19924;DHT22;10124;53.068;18.224;2022-10-22T03:49:37;9.20;1.00
19924;DHT22;10124;53.068;18.224;2022-10-22T03:52:10;9.20;1.00
19924;DHT22;10124;53.068;18.224;2022-10-22T03:54:39;9.30;1.00
19924;DHT22;10124;53.068;18.224;2022-10-22T03:57:07;9.30;1.00
19924;DHT22;10124;53.068;18.224;2022-10-22T03:59:40;9.30;1.00
19924;DHT22;10124;53.068;18.224;2022-10-22T04:02:08;9.30;1.00
19924;DHT22;10124;53.068;18.224;2022-10-22T04:04:36;9.30;1.00
19924;DHT22;10124;53.068;18.224;2022-10-22T04:07:05;9.30;1.00
19924;DHT22;10124;53.068;18.224;2022-10-22T04:09:33;9.30;1.00
19924;DHT22;10124;53.068;18.224;2022-10-22T04:12:00;9.40;1.00
19924;DHT22;10124;53.068;18.224;2022-10-22T04:14:28;9.80;1.00
19924;DHT22;10124;53.068;18.224;2022-10-22T04:16:56;9.40;1.00
19924;DHT22;10124;53.068;18.224;2022-10-22T04:19:23;9.40;1.00
19924;DHT22;10124;53.068;18.224;2022-10-22T04:21:51;9.50;1.00
19924;DHT22;10124;53.068;18.224;2022-10-22T04:24:18;9.50;1.00
19924;DHT22;10124;53.068;18.224;2022-10-22T04:26:45;9.50;1.00
19924;DHT22;10124;53.068;18.224;2022-10-22T04:29:13;9.60;1.00
19924;DHT22;10124;53.068;18.224;2022-10-22T04:31:42;9.60;1.00
19924;DHT22;10124;53.068;18.224;2022-10-22T04:34:09;9.60;1.00
19924;DHT22;10124;53.068;18.224;2022-10-22T04:36:37;9.60;1.00
19924;DHT22;10124;53.068;18.224;2022-10-22T04:39:04;9.70;1.00
19924;DHT22;10124;53.068;18.224;2022-10-22T04:41:35;9.80;1.00
19924;DHT22;10124;53.068;18.224;2022-10-22T04:44:05;9.90;1.00
19924;DHT22;10124;53.068;18.224;2022-10-22T04:46:34;10.00;1.00
19924;DHT22;10124;53.068;18.224;2022-10-22T04:49:01;10.00;1.00
19924;DHT22;10124;53.068;18.224;2022-10-22T04:51:31;10.00;1.00
19924;DHT22;10124;53.068;18.224;2022-10-22T04:53:59;10.00;1.00
19924;DHT22;10124;53.068;18.224;2022-10-22T04:56:28;10.00;1.00
19924;DHT22;10124;53.068;18.224;2022-10-22T04:59:02;9.90;1.00
19924;DHT22;10124;53.068;18.224;2022-10-22T05:01:34;9.90;1.00
19924;DHT22;10124;53.068;18.224;2022-10-22T05:04:12;9.90;1.00
19924;DHT22;10124;53.068;18.224;2022-10-22T05:06:39;9.90;1.00
19924;DHT22;10124;53.068;18.224;2022-10-22T05:09:11;9.80;1.00
19924;DHT22;10124;53.068;18.224;2022-10-22T05:11:41;9.80;1.00
19924;DHT22;10124;53.068;18.224;2022-10-22T05:14:12;9.80;1.00
19924;DHT22;10124;53.068;18.224;2022-10-22T05:16:39;9.80;1.00
19924;DHT22;10124;53.068;18.224;2022-10-22T05:19:07;10.00;1.00
19924;DHT22;10124;53.068;18.224;2022-10-22T05:21:36;10.10;1.00
19924;DHT22;10124;53.068;18.224;2022-10-22T05:24:04;10.20;1.00
19924;DHT22;10124;53.068;18.224;2022-10-22T05:26:31;10.20;1.00
19924;DHT22;10124;53.068;18.224;2022-10-22T05:28:59;10.30;1.00
19924;DHT22;10124;53.068;18.224;2022-10-22T05:31:26;10.40;1.00
19924;DHT22;10124;53.068;18.224;2022-10-22T05:33:55;10.40;1.00
19924;DHT22;10124;53.068;18.224;2022-10-22T05:36:22;10.50;1.00
19924;DHT22;10124;53.068;18.224;2022-10-22T05:38:50;10.60;1.00
19924;DHT22;10124;53.068;18.224;2022-10-22T05:41:23;10.60;1.00
19924;DHT22;10124;53.068;18.224;2022-10-22T05:43:53;10.60;1.00
19924;DHT22;10124;53.068;18.224;2022-10-22T05:46:22;10.70;1.00
19924;DHT22;10124;53.068;18.224;2022-10-22T05:48:52;10.70;1.00
19924;DHT22;10124;53.068;18.224;2022-10-22T05:51:20;10.70;1.00
19924;DHT22;10124;53.068;18.224;2022-10-22T05:53:52;10.80;1.00
19924;DHT22;10124;53.068;18.224;2022-10-22T05:56:20;10.80;1.00
19924;DHT22;10124;53.068;18.224;2022-10-22T05:58:49;10.90;1.00
19924;DHT22;10124;53.068;18.224;2022-10-22T06:01:29;10.90;1.00
19924;DHT22;10124;53.068;18.224;2022-10-22T06:03:59;10.80;1.00
19924;DHT22;10124;53.068;18.224;2022-10-22T06:06:42;10.80;1.00
19924;DHT22;10124;53.068;18.224;2022-10-22T06:09:17;10.70;1.00
19924;DHT22;10124;53.068;18.224;2022-10-22T06:11:46;10.80;1.00
19924;DHT22;10124;53.068;18.224;2022-10-22T06:14:15;11.90;1.00
19924;DHT22;10124;53.068;18.224;2022-10-22T06:16:43;10.80;1.00
19924;DHT22;10124;53.068;18.224;2022-10-22T06:19:12;10.80;1.00
19924;DHT22;10124;53.068;18.224;2022-10-22T06:21:40;10.80;1.00
19924;DHT22;10124;53.068;18.224;2022-10-22T06:24:09;10.80;1.00
19924;DHT22;10124;53.068;18.224;2022-10-22T06:26:37;10.80;1.00
19924;DHT22;10124;53.068;18.224;2022-10-22T06:29:05;10.90;1.00
19924;DHT22;10124;53.068;18.224;2022-10-22T06:31:32;10.90;1.00
19924;DHT22;10124;53.068;18.224;2022-10-22T06:34:05;10.90;1.00
19924;DHT22;10124;53.068;18.224;2022-10-22T06:36:33;10.90;1.00
19924;DHT22;10124;53.068;18.224;2022-10-22T06:39:02;11.00;1.00
19924;DHT22;10124;53.068;18.224;2022-10-22T06:41:30;11.00;1.00
19924;DHT22;10124;53.068;18.224;2022-10-22T06:43:57;11.10;1.00
19924;DHT22;10124;53.068;18.224;2022-10-22T06:46:26;11.00;1.00
19924;DHT22;10124;53.068;18.224;2022-10-22T06:48:57;11.00;1.00
19924;DHT22;10124;53.068;18.224;2022-10-22T06:51:26;11.10;1.00
19924;DHT22;10124;53.068;18.224;2022-10-22T06:53:55;11.00;1.00
19924;DHT22;10124;53.068;18.224;2022-10-22T06:56:25;11.00;1.00
19924;DHT22;10124;53.068;18.224;2022-10-22T06:58:54;11.10;1.00
19924;DHT22;10124;53.068;18.224;2022-10-22T07:01:24;11.50;1.00
19924;DHT22;10124;53.068;18.224;2022-10-22T07:03:53;11.10;1.00
19924;DHT22;10124;53.068;18.224;2022-10-22T07:06:22;11.20;1.00
19924;DHT22;10124;53.068;18.224;2022-10-22T07:08:52;11.20;1.00
19924;DHT22;10124;53.068;18.224;2022-10-22T07:11:22;11.20;1.00
19924;DHT22;10124;53.068;18.224;2022-10-22T07:13:52;11.30;1.00
19924;DHT22;10124;53.068;18.224;2022-10-22T07:16:20;11.20;1.00
19924;DHT22;10124;53.068;18.224;2022-10-22T07:18:48;11.30;1.00
19924;DHT22;10124;53.068;18.224;2022-10-22T07:21:17;11.30;1.00
19924;DHT22;10124;53.068;18.224;2022-10-22T07:23:45;11.30;1.00
19924;DHT22;10124;53.068;18.224;2022-10-22T07:26:14;11.30;1.00
19924;DHT22;10124;53.068;18.224;2022-10-22T07:28:42;11.40;1.00
19924;DHT22;10124;53.068;18.224;2022-10-22T07:31:11;11.40;1.00
19924;DHT22;10124;53.068;18.224;2022-10-22T07:33:39;11.50;1.00
19924;DHT22;10124;53.068;18.224;2022-10-22T07:36:11;11.40;1.00
19924;DHT22;10124;53.068;18.224;2022-10-22T07:38:45;11.40;1.00
19924;DHT22;10124;53.068;18.224;2022-10-22T07:41:14;11.40;1.00
19924;DHT22;10124;53.068;18.224;2022-10-22T07:43:42;11.40;1.00
19924;DHT22;10124;53.068;18.224;2022-10-22T07:46:10;11.40;1.00
19924;DHT22;10124;53.068;18.224;2022-10-22T07:48:37;11.40;1.00
19924;DHT22;10124;53.068;18.224;2022-10-22T07:51:05;11.40;1.00
19924;DHT22;10124;53.068;18.224;2022-10-22T07:53:33;11.50;1.00
19924;DHT22;10124;53.068;18.224;2022-10-22T07:56:01;11.50;1.00
19924;DHT22;10124;53.068;18.224;2022-10-22T07:58:29;11.60;1.00
19924;DHT22;10124;53.068;18.224;2022-10-22T08:00:57;11.60;1.00
19924;DHT22;10124;53.068;18.224;2022-10-22T08:03:28;11.70;1.00
19924;DHT22;10124;53.068;18.224;2022-10-22T08:05:55;11.70;1.00
19924;DHT22;10124;53.068;18.224;2022-10-22T08:08:23;11.80;1.00
19924;DHT22;10124;53.068;18.224;2022-10-22T08:10:57;11.90;1.00
19924;DHT22;10124;53.068;18.224;2022-10-22T08:13:26;11.90;1.00
19924;DHT22;10124;53.068;18.224;2022-10-22T08:15:55;12.00;1.00
19924;DHT22;10124;53.068;18.224;2022-10-22T08:18:24;12.10;1.00
19924;DHT22;10124;53.068;18.224;2022-10-22T08:20:52;12.00;1.00
19924;DHT22;10124;53.068;18.224;2022-10-22T08:23:20;12.10;1.00
19924;DHT22;10124;53.068;18.224;2022-10-22T08:25:55;12.20;1.00
19924;DHT22;10124;53.068;18.224;2022-10-22T08:28:23;12.30;1.00
19924;DHT22;10124;53.068;18.224;2022-10-22T08:30:51;12.40;1.00
19924;DHT22;10124;53.068;18.224;2022-10-22T08:33:18;12.60;1.00
19924;DHT22;10124;53.068;18.224;2022-10-22T08:35:50;12.50;1.00
19924;DHT22;10124;53.068;18.224;2022-10-22T08:38:18;12.50;1.00
19924;DHT22;10124;53.068;18.224;2022-10-22T08:40:52;12.60;1.00
19924;DHT22;10124;53.068;18.224;2022-10-22T08:43:40;12.60;1.00
19924;DHT22;10124;53.068;18.224;2022-10-22T08:46:24;12.70;1.00
19924;DHT22;10124;53.068;18.224;2022-10-22T08:49:02;12.70;1.00
19924;DHT22;10124;53.068;18.224;2022-10-22T08:51:34;12.80;1.00
19924;DHT22;10124;53.068;18.224;2022-10-22T08:54:20;12.80;1.00
19924;DHT22;10124;53.068;18.224;2022-10-22T08:59:56;12.90;1.00
19924;DHT22;10124;53.068;18.224;2022-10-22T09:08:14;12.90;1.00
19924;DHT22;10124;53.068;18.224;2022-10-22T09:13:43;12.90;1.00
19924;DHT22;10124;53.068;18.224;2022-10-22T09:16:35;13.00;1.00
19924;DHT22;10124;53.068;18.224;2022-10-22T09:19:21;13.00;1.00
19924;DHT22;10124;53.068;18.224;2022-10-22T09:24:48;13.30;1.00
19924;DHT22;10124;53.068;18.224;2022-10-22T09:27:25;13.50;1.00
19924;DHT22;10124;53.068;18.224;2022-10-22T09:29:52;13.60;1.00
19924;DHT22;10124;53.068;18.224;2022-10-22T09:32:20;13.60;1.00
19924;DHT22;10124;53.068;18.224;2022-10-22T09:34:49;13.50;1.00
19924;DHT22;10124;53.068;18.224;2022-10-22T09:37:18;13.50;1.00
19924;DHT22;10124;53.068;18.224;2022-10-22T09:39:49;13.60;1.00
19924;DHT22;10124;53.068;18.224;2022-10-22T09:42:19;13.70;1.00
19924;DHT22;10124;53.068;18.224;2022-10-22T09:44:59;13.70;1.00
19924;DHT22;10124;53.068;18.224;2022-10-22T09:47:40;13.70;1.00
19924;DHT22;10124;53.068;18.224;2022-10-22T09:50:55;13.70;1.00
19924;DHT22;10124;53.068;18.224;2022-10-22T09:53:40;13.60;1.00
19924;DHT22;10124;53.068;18.224;2022-10-22T09:56:26;13.50;1.00
19924;DHT22;10124;53.068;18.224;2022-10-22T09:58:56;13.50;1.00
19924;DHT22;10124;53.068;18.224;2022-10-22T10:01:28;13.50;1.00
19924;DHT22;10124;53.068;18.224;2022-10-22T10:04:09;13.40;1.00
19924;DHT22;10124;53.068;18.224;2022-10-22T10:06:40;13.50;1.00
19924;DHT22;10124;53.068;18.224;2022-10-22T10:09:18;13.50;1.00
19924;DHT22;10124;53.068;18.224;2022-10-22T10:17:52;13.50;1.00
19924;DHT22;10124;53.068;18.224;2022-10-22T10:20:42;13.40;1.00
19924;DHT22;10124;53.068;18.224;2022-10-22T10:23:33;13.50;1.00
19924;DHT22;10124;53.068;18.224;2022-10-22T10:26:08;13.40;1.00
19924;DHT22;10124;53.068;18.224;2022-10-22T10:29:09;13.40;1.00
19924;DHT22;10124;53.068;18.224;2022-10-22T10:35:08;13.20;1.00
19924;DHT22;10124;53.068;18.224;2022-10-22T10:41:07;13.20;1.00
19924;DHT22;10124;53.068;18.224;2022-10-22T10:49:30;13.20;1.00
19924;DHT22;10124;53.068;18.224;2022-10-22T10:52:15;13.30;1.00
19924;DHT22;10124;53.068;18.224;2022-10-22T10:57:54;13.10;1.00
19924;DHT22;10124;53.068;18.224;2022-10-22T11:00:23;13.10;1.00
19924;DHT22;10124;53.068;18.224;2022-10-22T11:05:57;13.10;1.00
19924;DHT22;10124;53.068;18.224;2022-10-22T11:08:31;13.20;1.00
19924;DHT22;10124;53.068;18.224;2022-10-22T11:11:08;13.10;1.00
19924;DHT22;10124;53.068;18.224;2022-10-22T11:13:59;13.10;1.00
19924;DHT22;10124;53.068;18.224;2022-10-22T11:16:43;13.10;1.00
19924;DHT22;10124;53.068;18.224;2022-10-22T11:19:22;13.10;1.00
19924;DHT22;10124;53.068;18.224;2022-10-22T11:24:44;13.00;1.00
19924;DHT22;10124;53.068;18.224;2022-10-22T11:27:46;13.10;1.00
19924;DHT22;10124;53.068;18.224;2022-10-22T11:30:19;13.10;1.00
19924;DHT22;10124;53.068;18.224;2022-10-22T11:33:00;13.20;1.00
19924;DHT22;10124;53.068;18.224;2022-10-22T11:35:40;13.20;1.00
19924;DHT22;10124;53.068;18.224;2022-10-22T11:38:15;13.20;1.00
19924;DHT22;10124;53.068;18.224;2022-10-22T11:41:23;13.30;1.00
19924;DHT22;10124;53.068;18.224;2022-10-22T11:49:16;13.30;1.00
19924;DHT22;10124;53.068;18.224;2022-10-22T11:51:46;13.20;1.00
19924;DHT22;10124;53.068;18.224;2022-10-22T11:57:20;13.20;1.00
19924;DHT22;10124;53.068;18.224;2022-10-22T11:59:53;13.20;1.00
19924;DHT22;10124;53.068;18.224;2022-10-22T12:05:37;13.20;1.00
19924;DHT22;10124;53.068;18.224;2022-10-22T12:11:02;13.10;1.00
19924;DHT22;10124;53.068;18.224;2022-10-22T12:13:33;13.10;1.00
19924;DHT22;10124;53.068;18.224;2022-10-22T12:16:17;13.10;1.00
19924;DHT22;10124;53.068;18.224;2022-10-22T12:21:59;13.10;1.00
19924;DHT22;10124;53.068;18.224;2022-10-22T12:24:33;13.10;1.00
19924;DHT22;10124;53.068;18.224;2022-10-22T12:27:01;13.10;1.00
19924;DHT22;10124;53.068;18.224;2022-10-22T12:29:31;13.10;1.00
19924;DHT22;10124;53.068;18.224;2022-10-22T12:32:02;13.20;1.00
19924;DHT22;10124;53.068;18.224;2022-10-22T12:34:30;13.20;1.00
19924;DHT22;10124;53.068;18.224;2022-10-22T12:36:58;13.20;1.00
19924;DHT22;10124;53.068;18.224;2022-10-22T12:39:26;13.20;1.00
19924;DHT22;10124;53.068;18.224;2022-10-22T12:41:54;13.20;1.00
19924;DHT22;10124;53.068;18.224;2022-10-22T12:44:21;13.10;1.00
19924;DHT22;10124;53.068;18.224;2022-10-22T12:46:49;13.20;1.00
19924;DHT22;10124;53.068;18.224;2022-10-22T12:49:40;13.10;1.00
19924;DHT22;10124;53.068;18.224;2022-10-22T12:52:13;13.10;1.00
19924;DHT22;10124;53.068;18.224;2022-10-22T12:54:44;13.20;1.00
19924;DHT22;10124;53.068;18.224;2022-10-22T12:57:16;13.20;1.00
19924;DHT22;10124;53.068;18.224;2022-10-22T12:59:47;13.10;1.00
19924;DHT22;10124;53.068;18.224;2022-10-22T13:02:23;13.10;1.00
19924;DHT22;10124;53.068;18.224;2022-10-22T13:05:30;13.30;1.00
19924;DHT22;10124;53.068;18.224;2022-10-22T13:08:11;13.10;1.00
19924;DHT22;10124;53.068;18.224;2022-10-22T13:10:39;13.10;1.00
19924;DHT22;10124;53.068;18.224;2022-10-22T13:13:28;13.00;1.00
19924;DHT22;10124;53.068;18.224;2022-10-22T13:16:19;13.70;1.00
19924;DHT22;10124;53.068;18.224;2022-10-22T13:18:47;13.00;1.00
19924;DHT22;10124;53.068;18.224;2022-10-22T13:21:41;13.00;1.00
19924;DHT22;10124;53.068;18.224;2022-10-22T13:24:23;12.80;1.00
19924;DHT22;10124;53.068;18.224;2022-10-22T13:26:52;13.00;1.00
19924;DHT22;10124;53.068;18.224;2022-10-22T13:29:21;13.00;1.00
19924;DHT22;10124;53.068;18.224;2022-10-22T13:31:51;12.90;1.00
19924;DHT22;10124;53.068;18.224;2022-10-22T13:34:23;12.90;1.00
19924;DHT22;10124;53.068;18.224;2022-10-22T13:36:52;12.90;1.00
19924;DHT22;10124;53.068;18.224;2022-10-22T13:39:21;12.80;1.00
19924;DHT22;10124;53.068;18.224;2022-10-22T13:41:50;12.90;1.00
19924;DHT22;10124;53.068;18.224;2022-10-22T13:44:18;14.00;1.00
19924;DHT22;10124;53.068;18.224;2022-10-22T13:46:46;12.90;1.00
19924;DHT22;10124;53.068;18.224;2022-10-22T13:49:17;12.80;1.00
19924;DHT22;10124;53.068;18.224;2022-10-22T13:51:46;13.20;1.00
19924;DHT22;10124;53.068;18.224;2022-10-22T13:54:16;12.90;1.00
19924;DHT22;10124;53.068;18.224;2022-10-22T13:56:48;12.90;1.00
19924;DHT22;10124;53.068;18.224;2022-10-22T13:59:15;12.90;1.00
19924;DHT22;10124;53.068;18.224;2022-10-22T14:01:48;12.90;1.00
19924;DHT22;10124;53.068;18.224;2022-10-22T14:04:16;12.90;1.00
19924;DHT22;10124;53.068;18.224;2022-10-22T14:06:43;12.80;1.00
19924;DHT22;10124;53.068;18.224;2022-10-22T14:09:13;12.80;1.00
19924;DHT22;10124;53.068;18.224;2022-10-22T14:11:41;12.80;1.00
19924;DHT22;10124;53.068;18.224;2022-10-22T14:14:09;12.80;1.00
19924;DHT22;10124;53.068;18.224;2022-10-22T14:16:40;12.90;1.00
19924;DHT22;10124;53.068;18.224;2022-10-22T14:19:15;12.90;1.00
19924;DHT22;10124;53.068;18.224;2022-10-22T14:21:43;13.00;1.00
19924;DHT22;10124;53.068;18.224;2022-10-22T14:24:11;13.00;1.00
19924;DHT22;10124;53.068;18.224;2022-10-22T14:26:39;12.90;1.00
19924;DHT22;10124;53.068;18.224;2022-10-22T14:29:07;12.90;1.00
19924;DHT22;10124;53.068;18.224;2022-10-22T14:31:41;12.90;1.00
19924;DHT22;10124;53.068;18.224;2022-10-22T14:34:13;12.90;1.00
19924;DHT22;10124;53.068;18.224;2022-10-22T14:36:42;12.90;1.00
19924;DHT22;10124;53.068;18.224;2022-10-22T14:39:11;12.90;1.00
19924;DHT22;10124;53.068;18.224;2022-10-22T14:41:39;12.90;1.00
19924;DHT22;10124;53.068;18.224;2022-10-22T14:44:11;13.00;1.00
19924;DHT22;10124;53.068;18.224;2022-10-22T14:46:41;12.90;1.00
19924;DHT22;10124;53.068;18.224;2022-10-22T14:49:10;13.00;1.00
19924;DHT22;10124;53.068;18.224;2022-10-22T14:51:38;12.90;1.00
19924;DHT22;10124;53.068;18.224;2022-10-22T14:54:05;12.90;1.00
19924;DHT22;10124;53.068;18.224;2022-10-22T14:56:33;13.00;1.00
19924;DHT22;10124;53.068;18.224;2022-10-22T14:59:01;13.00;1.00
19924;DHT22;10124;53.068;18.224;2022-10-22T15:01:28;12.90;1.00
19924;DHT22;10124;53.068;18.224;2022-10-22T15:03:56;12.90;1.00
19924;DHT22;10124;53.068;18.224;2022-10-22T15:06:23;12.90;1.00
19924;DHT22;10124;53.068;18.224;2022-10-22T15:08:51;12.90;1.00
19924;DHT22;10124;53.068;18.224;2022-10-22T15:11:19;12.90;1.00
19924;DHT22;10124;53.068;18.224;2022-10-22T15:13:47;12.80;1.00
19924;DHT22;10124;53.068;18.224;2022-10-22T15:16:15;12.90;1.00
19924;DHT22;10124;53.068;18.224;2022-10-22T15:18:43;12.90;1.00
19924;DHT22;10124;53.068;18.224;2022-10-22T15:21:16;12.90;1.00
19924;DHT22;10124;53.068;18.224;2022-10-22T15:23:44;12.90;1.00
19924;DHT22;10124;53.068;18.224;2022-10-22T15:26:12;12.90;1.00
19924;DHT22;10124;53.068;18.224;2022-10-22T15:28:40;12.80;1.00
19924;DHT22;10124;53.068;18.224;2022-10-22T15:31:11;12.90;1.00
19924;DHT22;10124;53.068;18.224;2022-10-22T15:33:42;12.90;1.00
19924;DHT22;10124;53.068;18.224;2022-10-22T15:36:14;12.90;1.00
19924;DHT22;10124;53.068;18.224;2022-10-22T15:38:43;12.90;1.00
19924;DHT22;10124;53.068;18.224;2022-10-22T15:41:11;14.10;1.00
19924;DHT22;10124;53.068;18.224;2022-10-22T15:43:39;12.90;1.00
19924;DHT22;10124;53.068;18.224;2022-10-22T15:48:36;12.80;1.00
19924;DHT22;10124;53.068;18.224;2022-10-22T15:51:12;12.80;1.00
19924;DHT22;10124;53.068;18.224;2022-10-22T15:53:40;12.80;1.00
19924;DHT22;10124;53.068;18.224;2022-10-22T15:56:08;12.80;1.00
19924;DHT22;10124;53.068;18.224;2022-10-22T15:58:38;12.80;1.00
19924;DHT22;10124;53.068;18.224;2022-10-22T16:01:12;12.80;1.00
19924;DHT22;10124;53.068;18.224;2022-10-22T16:03:50;12.70;1.00
19924;DHT22;10124;53.068;18.224;2022-10-22T16:06:37;12.70;1.00
19924;DHT22;10124;53.068;18.224;2022-10-22T16:09:11;12.70;1.00
19924;DHT22;10124;53.068;18.224;2022-10-22T16:11:40;12.70;1.00
19924;DHT22;10124;53.068;18.224;2022-10-22T16:14:13;12.70;1.00
19924;DHT22;10124;53.068;18.224;2022-10-22T16:16:49;12.80;1.00
19924;DHT22;10124;53.068;18.224;2022-10-22T16:19:18;12.70;1.00
19924;DHT22;10124;53.068;18.224;2022-10-22T16:21:48;12.80;1.00
19924;DHT22;10124;53.068;18.224;2022-10-22T16:24:18;12.80;1.00
19924;DHT22;10124;53.068;18.224;2022-10-22T16:26:46;12.80;1.00
19924;DHT22;10124;53.068;18.224;2022-10-22T16:29:17;12.80;1.00
19924;DHT22;10124;53.068;18.224;2022-10-22T16:31:45;12.80;1.00
19924;DHT22;10124;53.068;18.224;2022-10-22T16:34:12;12.80;1.00
19924;DHT22;10124;53.068;18.224;2022-10-22T16:36:40;12.80;1.00
19924;DHT22;10124;53.068;18.224;2022-10-22T16:39:08;12.80;1.00
19924;DHT22;10124;53.068;18.224;2022-10-22T16:41:36;12.80;1.00
19924;DHT22;10124;53.068;18.224;2022-10-22T16:44:05;12.80;1.00
19924;DHT22;10124;53.068;18.224;2022-10-22T16:46:35;12.80;1.00
19924;DHT22;10124;53.068;18.224;2022-10-22T16:49:12;12.80;1.00
19924;DHT22;10124;53.068;18.224;2022-10-22T16:51:39;12.70;1.00
19924;DHT22;10124;53.068;18.224;2022-10-22T16:54:06;12.80;1.00
19924;DHT22;10124;53.068;18.224;2022-10-22T16:56:38;12.80;1.00
19924;DHT22;10124;53.068;18.224;2022-10-22T16:59:06;12.80;1.00
19924;DHT22;10124;53.068;18.224;2022-10-22T17:01:34;12.70;1.00
19924;DHT22;10124;53.068;18.224;2022-10-22T17:04:07;12.70;1.00
19924;DHT22;10124;53.068;18.224;2022-10-22T17:06:35;12.70;1.00
19924;DHT22;10124;53.068;18.224;2022-10-22T17:09:03;12.70;1.00
19924;DHT22;10124;53.068;18.224;2022-10-22T17:11:31;12.80;1.00
19924;DHT22;10124;53.068;18.224;2022-10-22T17:14:04;12.80;1.00
19924;DHT22;10124;53.068;18.224;2022-10-22T17:16:32;12.80;1.00
19924;DHT22;10124;53.068;18.224;2022-10-22T17:19:02;12.80;1.00
19924;DHT22;10124;53.068;18.224;2022-10-22T17:21:29;12.80;1.00
19924;DHT22;10124;53.068;18.224;2022-10-22T17:23:57;12.90;1.00
19924;DHT22;10124;53.068;18.224;2022-10-22T17:26:25;12.90;1.00
19924;DHT22;10124;53.068;18.224;2022-10-22T17:28:57;12.90;1.00
19924;DHT22;10124;53.068;18.224;2022-10-22T17:31:26;12.90;1.00
19924;DHT22;10124;53.068;18.224;2022-10-22T17:33:55;12.80;1.00
19924;DHT22;10124;53.068;18.224;2022-10-22T17:36:24;12.80;1.00
19924;DHT22;10124;53.068;18.224;2022-10-22T17:38:56;12.80;1.00
19924;DHT22;10124;53.068;18.224;2022-10-22T17:41:26;12.90;1.00
19924;DHT22;10124;53.068;18.224;2022-10-22T17:43:55;12.90;1.00
19924;DHT22;10124;53.068;18.224;2022-10-22T17:46:25;13.00;1.00
19924;DHT22;10124;53.068;18.224;2022-10-22T17:48:55;13.70;1.00
19924;DHT22;10124;53.068;18.224;2022-10-22T17:51:25;12.90;1.00
19924;DHT22;10124;53.068;18.224;2022-10-22T17:53:53;12.90;1.00
19924;DHT22;10124;53.068;18.224;2022-10-22T17:56:23;13.00;1.00